Nearby METAR Reports

 

K8A0 - Albertville Muni, Alabama, USA
Distance from station: SW 1mi, 2km
Updated: Tue, 22-Jan-2019 3:15am CST
Clear
Clear
 Wind from ESE
Wind: ESE 6 mph , 9 km/h
Temperature: 32°F , 0°C
Wind Chill: 26°F , -3°C
Dew Point: 14°F , -10°C
Humidity: 47%
Barometer: 30.39 inHg , 1029.1 hPa
Clouds: Clear
Visibility: 10 miles , 16 km
2019/01/22 09:15 K8A0 220915Z AUTO 11005KT 10SM CLR 00/M10 A3039 RMK AO2
KGAD - Gadsden Muni, Alabama, USA
Distance from station: SSE 21mi, 35km
Updated: Tue, 22-Jan-2019 2:56am CST
Clear
Clear
 Wind from ENE
Wind: ENE 6 mph , 9 km/h
Temperature: 28°F , -2°C
Wind Chill: 21°F , -6°C
Dew Point: 21°F , -6°C
Humidity: 74%
Barometer: 30.43 inHg , 1030.5 hPa
Clouds: Clear
Visibility: 10 miles , 16 km
2019/01/22 08:56 KGAD 220856Z AUTO 07005KT 10SM CLR M02/M06 A3043 RMK AO2 SLP315 T10221061 51006 FZRANO
K4A6 - Scottsboro, Alabama, USA
Distance from station: NNE 33mi, 53km
Updated: Tue, 22-Jan-2019 3:35am CST
Clear
Clear
 Wind from calm
Wind: Calm
Temperature: 25°F , -4°C
Dew Point: 19°F , -7°C
Humidity: 80%
Barometer: 30.43 inHg , 1030.5 hPa
Clouds: Clear
Visibility: 10 miles , 16 km
2019/01/22 09:35 K4A6 220935Z AUTO 00000KT 10SM CLR M04/M07 A3043 RMK AO2
 
K4A9 - Ft Payne/Isbell, Alabama, USA
Distance from station: ENE 33mi, 54km
Updated: Tue, 22-Jan-2019 3:15am CST
Clear
Clear
 Wind from W
Wind: W 5 mph , 7 km/h
Temperature: 34°F , 1°C
Wind Chill: 29°F , -2°C
Dew Point: 10°F , -12°C
Humidity: 38%
Barometer: 30.41 inHg , 1029.8 hPa
Clouds: Clear
Visibility: 10 miles , 16 km
2019/01/22 09:15 K4A9 220915Z AUTO 26004KT 10SM CLR 01/M12 A3041 RMK AO2 T00051115
KCMD - Cullman/Folsom F, Alabama, USA
Distance from station: W 35mi, 57km
Updated: Tue, 22-Jan-2019 3:15am CST
Clear
Clear
 Wind from ESE
Wind: ESE 5 mph , 7 km/h
Temperature: 30°F , -1°C
Wind Chill: 25°F , -4°C
Dew Point: 14°F , -10°C
Humidity: 51%
Barometer: 30.37 inHg , 1028.4 hPa
Clouds: Clear
Visibility: 10 miles , 16 km
2019/01/22 09:15 KCMD 220915Z AUTO 12004KT 10SM CLR M01/M10 A3037 RMK AO2 T10081097
KHUA - Redstone Arsenal, Alabama, USA
Distance from station: NW 40mi, 64km
Updated: Tue, 22-Jan-2019 2:58am CST
Clear
Clear
 Wind from S
Wind: S 12 mph , 19 km/h
Temperature: 34°F , 1°C
Wind Chill: 25°F , -4°C
Dew Point: 16°F , -9°C
Humidity: 48%
Barometer: 30.36 inHg , 1028.1 hPa
Clouds: Clear
Visibility: 10 miles , 16 km
2019/01/22 08:58 KHUA 220858Z AUTO 17010KT 10SM CLR 01/M09 A3036 RMK AO2 SLP287 T00121090 50003
 
KHSV - Huntsville, Alabama, USA
Distance from station: NW 42mi, 68km
Updated: Tue, 22-Jan-2019 2:53am CST
Clear
Clear
 Wind from SE
Wind: SE 10 mph , 17 km/h
Temperature: 34°F , 1°C
Wind Chill: 26°F , -3°C
Dew Point: 18°F , -8°C
Humidity: 51%
Barometer: 30.36 inHg , 1028.1 hPa
Clouds: Clear
Visibility: 10 miles , 16 km
2019/01/22 08:53 KHSV 220853Z AUTO 13009KT 10SM CLR 01/M08 A3036 RMK AO2 SLP284 T00111078 50002
KMDQ - Huntsville/Madis, Alabama, USA
Distance from station: NNW 47mi, 75km
Updated: Tue, 22-Jan-2019 3:15am CST
Clear
Clear
 Wind from SE
Wind: SE 10 mph , 17 km/h, Gust: 17 mph , 28 km/h
Temperature: 36°F , 2°C
Wind Chill: 29°F , -2°C
Dew Point: 14°F , -10°C
Humidity: 41%
Barometer: 30.37 inHg , 1028.4 hPa
Clouds: Clear
Visibility: 10 miles , 16 km
2019/01/22 09:15 KMDQ 220915Z AUTO 14009G15KT 10SM CLR 02/M10 A3037 RMK A02 T00171097
KASN - Talladega, Alabama, USA
Distance from station: SSE 48mi, 77km
Updated: Tue, 22-Jan-2019 3:15am CST
Clear
Clear
 Wind from NNE
Wind: NNE 5 mph , 7 km/h
Temperature: 32°F , 0°C
Wind Chill: 27°F , -3°C
Dew Point: 23°F , -5°C
Humidity: 69%
Barometer: 30.42 inHg , 1030.1 hPa
Clouds: Clear
Visibility: 10 miles , 16 km
2019/01/22 09:15 KASN 220915Z AUTO 03004KT 10SM CLR 00/M05 A3042 RMK AO2 T10031055
 
KDCU - Decatur, Alabama, USA
Distance from station: NW 49mi, 80km
Updated: Tue, 22-Jan-2019 2:53am CST
Clear
Clear
 Wind from ESE
Wind: ESE 5 mph , 7 km/h
Temperature: 30°F , -1°C
Wind Chill: 25°F , -4°C
Dew Point: 18°F , -8°C
Humidity: 59%
Barometer: 30.38 inHg , 1028.8 hPa
Clouds: Clear
Visibility: 10 miles , 16 km
2019/01/22 08:53 KDCU 220853Z AUTO 12004KT 10SM CLR M01/M08 A3038 RMK AO2 SLP290 T10111083 53001 $
KGKT - Sevierville, Tennessee, USA
Distance from station: NE 235mi, 378km
Updated: Tue, 22-Jan-2019 3:15am CST
Clear
Clear
 Wind from calm
Wind: Calm
Temperature: 18°F , -8°C
Dew Point: 16°F , -9°C
Humidity: 93%
Barometer: 30.45 inHg , 1031.2 hPa
Clouds: Clear
Visibility: 10 miles , 16 km
2019/01/22 09:15 KGKT 220915Z AUTO 00000KT 10SM CLR M08/M09 A3045 RMK A01
KECP - Panama City, Florida, USA
Distance from station: S 330mi, 531km
Updated: Tue, 22-Jan-2019 2:53am CST
Clear
Clear
 Wind from ENE
Wind: ENE 9 mph , 15 km/h
Temperature: 41°F , 5°C
Wind Chill: 35°F , 2°C
Dew Point: 34°F , 1°C
Humidity: 76%
Barometer: 30.34 inHg , 1027.4 hPa
Clouds: Clear
Visibility: 10 miles , 16 km
2019/01/22 08:53 KECP 220853Z AUTO 07008KT 10SM CLR 05/01 A3034 RMK AO2 SLP285 T00500006 56009
 
KNYL - Yuma MCAS, Arizona, USA
Distance from station: SW 1900mi, 3600km
Updated: Tue, 22-Jan-2019 2:57am CST
Clear
Clear
 Wind from WNW
Wind: WNW 10 mph , 17 km/h
Temperature: 52°F , 11°C
Dew Point: 36°F , 2°C
Humidity: 54%
Barometer: 30.02 inHg , 1016.6 hPa
Clouds: Clear
Visibility: 10 miles , 16 km
2019/01/22 08:57 KNYL 220857Z AUTO 29009KT 10SM CLR 11/02 A3002 RMK AO2 SLP165 T01060017 51013